KRDG/RDG METAR and TAF weather

Enter ICAO airport designator
Station Type Date Time Source
KRDG METAR 2020/09/18 23:54 UTC NOAA

KRDG 182354Z AUTO 36010G20KT 10SM CLR 17/02 A3009 RMK AO2 SLP194 T01670017 10228 20167 53034


Station Type Date Time Source
KRDG Decoded METAR 2020/09/18 23:54 UTC NOAA

READING REGIONAL AIRPORT, PA, United States (KRDG) 40-22N 075-58W 109M
Sep 18, 2020 - 07:54 PM EDT / 2020.09.18 2354 UTC
Wind: from the N (360 degrees) at 12 MPH (10 KT) gusting to 23 MPH (20 KT):0
Visibility: 10 mile(s):0
Sky conditions: clear
Temperature: 62.1 F (16.7 C)
Dew Point: 35.1 F (1.7 C)
Relative Humidity: 36%
Pressure (altimeter): 30.09 in. Hg (1018 hPa)
Pressure tendency: 0.10 inches (3.4 hPa) higher than three hours ago
ob: KRDG 182354Z AUTO 36010G20KT 10SM CLR 17/02 A3009 RMK AO2 SLP194 T01670017 10228 20167 53034
cycle: 0

Station Type Date Time Source
KRDG TAF 2020/09/18 18:24 UTC NOAA

TAF KRDG 181721Z 1818/1918 36012G20KT P6SM SCT040 BKN200
FM190000 35010KT P6SM SCT200
FM191000 34006KT P6SM SKC

Example: see airport list